createdAt,value
2024-01-10T04:02:32.626Z,59.20
2024-01-10T04:05:00.790Z,59.20
2024-01-10T04:07:29.606Z,59.30
2024-01-10T04:09:57.505Z,59.40
2024-01-10T04:12:25.394Z,59.40
2024-01-10T04:14:53.337Z,59.30
2024-01-10T04:17:21.299Z,59.10
2024-01-10T04:19:50.611Z,59.30
2024-01-10T04:22:18.525Z,59.60
2024-01-10T04:24:46.421Z,59.90
2024-01-10T04:27:14.367Z,59.90
2024-01-10T04:29:42.262Z,60.10
2024-01-10T04:32:10.335Z,60.10
2024-01-10T04:34:38.355Z,59.90
2024-01-10T04:37:08.416Z,60.10
2024-01-10T04:39:36.318Z,60.30
2024-01-10T04:42:04.624Z,60.30
2024-01-10T04:44:32.494Z,60.20
2024-01-10T04:47:00.457Z,60.20
2024-01-10T04:49:28.371Z,59.80
2024-01-10T04:51:56.741Z,59.70
2024-01-10T04:54:25.952Z,59.70
2024-01-10T04:56:53.845Z,59.80
2024-01-10T04:59:21.863Z,59.80
2024-01-10T05:01:49.911Z,59.40
2024-01-10T05:04:18.347Z,59.30
2024-01-10T05:06:46.528Z,59.40
2024-01-10T05:09:15.131Z,59.90
2024-01-10T05:11:45.145Z,59.50
2024-01-10T05:14:13.282Z,59.60
2024-01-10T05:16:41.369Z,59.40
2024-01-10T05:19:10.418Z,59.40
2024-01-10T05:21:38.426Z,59.40
2024-01-10T05:24:07.062Z,59.70
2024-01-10T05:26:34.961Z,59.60
2024-01-10T05:29:04.228Z,59.90
2024-01-10T05:31:32.193Z,59.80
2024-01-10T05:34:00.134Z,60.00
2024-01-10T05:36:28.079Z,59.90
2024-01-10T05:38:55.982Z,60.10
2024-01-10T05:41:26.086Z,59.60
2024-01-10T05:43:54.067Z,59.90
2024-01-10T05:46:23.340Z,59.80
2024-01-10T05:48:51.302Z,59.60
2024-01-10T05:51:19.272Z,59.50
2024-01-10T05:53:47.531Z,59.50
2024-01-10T05:56:15.959Z,59.30
2024-01-10T05:58:43.941Z,59.40
2024-01-10T06:01:12.209Z,59.50
2024-01-10T06:03:41.648Z,59.70
2024-01-10T06:06:10.448Z,59.70
2024-01-10T06:08:38.370Z,59.90
2024-01-10T06:11:09.857Z,60.10
2024-01-10T06:13:46.519Z,60.20
2024-01-10T06:16:21.911Z,60.30
2024-01-10T06:18:51.267Z,60.10
2024-01-10T06:21:19.241Z,59.80
2024-01-10T06:23:47.959Z,59.90
2024-01-10T06:26:15.968Z,59.90
2024-01-10T06:28:45.225Z,60.10
2024-01-10T06:31:13.511Z,60.30
2024-01-10T06:33:41.580Z,60.30
2024-01-10T06:36:11.616Z,60.50
2024-01-10T06:38:40.813Z,60.30
2024-01-10T06:41:10.903Z,60.70
2024-01-10T06:43:38.917Z,60.80
2024-01-10T06:46:07.178Z,60.50
2024-01-10T06:48:35.390Z,60.20
2024-01-10T06:51:03.324Z,59.80
2024-01-10T06:53:32.561Z,60.00
2024-01-10T06:56:00.501Z,59.90
2024-01-10T06:58:28.386Z,60.40
2024-01-10T07:00:56.398Z,60.30
2024-01-10T07:03:24.322Z,60.60
2024-01-10T07:05:52.212Z,60.80
2024-01-10T07:08:20.157Z,60.80
2024-01-10T07:10:49.394Z,60.80
2024-01-10T07:13:17.277Z,60.70
2024-01-10T07:15:45.317Z,60.90
2024-01-10T07:18:13.274Z,61.10
2024-01-10T07:20:41.331Z,61.50
2024-01-10T07:23:09.669Z,61.40
2024-01-10T07:25:38.373Z,61.50
2024-01-10T07:28:07.970Z,61.60
2024-01-10T07:30:36.272Z,61.30
2024-01-10T07:33:04.440Z,62.10
2024-01-10T07:35:32.539Z,61.50
2024-01-10T07:38:00.533Z,61.80
2024-01-10T07:40:28.477Z,61.90
2024-01-10T07:42:56.871Z,61.80
2024-01-10T07:45:26.173Z,61.70
2024-01-10T07:47:54.094Z,61.40
2024-01-10T07:50:29.456Z,61.40
2024-01-10T07:52:57.905Z,61.40
2024-01-10T07:55:25.913Z,61.30
2024-01-10T07:57:53.959Z,61.40
2024-01-10T08:00:23.124Z,61.30
2024-01-10T08:02:52.426Z,61.30
2024-01-10T08:05:22.415Z,61.10
2024-01-10T08:07:50.536Z,61.30
2024-01-10T08:10:18.401Z,61.10
2024-01-10T08:12:46.311Z,61.20
2024-01-10T08:15:15.435Z,61.20
2024-01-10T08:17:44.588Z,61.40
2024-01-10T08:20:16.195Z,61.10
2024-01-10T08:22:45.048Z,60.90
2024-01-10T08:25:13.757Z,60.90
2024-01-10T08:27:45.065Z,61.10
2024-01-10T08:30:13.815Z,60.90
2024-01-10T08:32:41.785Z,61.20
2024-01-10T08:35:10.852Z,61.20
2024-01-10T08:37:43.450Z,61.40
2024-01-10T08:40:13.325Z,61.40
2024-01-10T08:42:41.329Z,61.40
2024-01-10T08:45:12.340Z,61.60
2024-01-10T08:47:40.398Z,61.30
2024-01-10T08:50:10.405Z,61.40
2024-01-10T08:52:39.960Z,61.50
2024-01-10T08:55:12.185Z,61.70
2024-01-10T08:57:41.980Z,61.70
2024-01-10T09:00:13.176Z,61.20
2024-01-10T09:02:41.300Z,60.60
2024-01-10T09:05:11.352Z,60.60
2024-01-10T09:07:41.413Z,60.60
2024-01-10T09:10:09.764Z,60.30
2024-01-10T09:12:38.190Z,60.60
2024-01-10T09:15:09.311Z,59.90
2024-01-10T09:17:37.293Z,59.40
2024-01-10T09:20:05.823Z,59.30
2024-01-10T09:22:33.729Z,59.20
2024-01-10T09:25:05.319Z,59.10
2024-01-10T09:27:35.502Z,59.70
2024-01-10T09:30:03.843Z,59.10
2024-01-10T09:32:32.078Z,59.10
2024-01-10T09:35:00.440Z,59.00
2024-01-10T09:37:28.465Z,58.40
2024-01-10T09:39:56.343Z,58.50
2024-01-10T09:42:26.903Z,58.40
2024-01-10T09:44:55.001Z,58.60
2024-01-10T09:47:23.487Z,58.00
2024-01-10T09:49:51.872Z,57.50
2024-01-10T09:52:26.402Z,57.80
2024-01-10T09:54:57.309Z,57.60
2024-01-10T09:57:27.408Z,58.10
2024-01-10T09:59:56.463Z,57.70
2024-01-10T10:02:26.016Z,57.70
2024-01-10T10:05:03.313Z,57.70
2024-01-10T10:07:31.273Z,57.20
2024-01-10T10:09:59.978Z,56.90
2024-01-10T10:12:43.821Z,56.60
2024-01-10T10:15:14.109Z,55.90
2024-01-10T10:17:47.610Z,56.50
2024-01-10T10:20:21.817Z,56.60
2024-01-10T10:23:01.791Z,56.40
2024-01-10T10:25:33.091Z,56.10
2024-01-10T10:28:03.945Z,55.60
2024-01-10T10:30:33.891Z,55.50
2024-01-10T10:33:03.541Z,56.10
2024-01-10T10:35:38.091Z,55.80
2024-01-10T10:38:11.547Z,55.50
2024-01-10T10:40:39.994Z,55.60
2024-01-10T10:43:15.086Z,55.70
2024-01-10T10:45:48.886Z,55.90
2024-01-10T10:48:20.533Z,55.70
2024-01-10T10:50:59.332Z,55.90
2024-01-10T10:53:32.026Z,55.50
2024-01-10T10:56:02.589Z,55.70
2024-01-10T10:58:38.311Z,55.70
2024-01-10T11:01:07.807Z,56.20
2024-01-10T11:03:38.544Z,57.00
2024-01-10T11:06:07.809Z,56.30
2024-01-10T11:08:39.528Z,56.20
2024-01-10T11:11:13.818Z,56.20
2024-01-10T11:14:02.713Z,56.20
2024-01-10T11:16:58.692Z,56.50
2024-01-10T11:19:50.150Z,56.50
2024-01-10T11:22:34.112Z,56.10
2024-01-10T11:25:03.138Z,56.30
2024-01-10T11:27:32.225Z,56.40
2024-01-10T11:30:04.371Z,56.20
2024-01-10T11:32:32.439Z,55.80
2024-01-10T11:35:08.778Z,55.20
2024-01-10T11:37:42.108Z,55.50
2024-01-10T11:40:11.335Z,55.60
2024-01-10T11:42:46.762Z,55.30
2024-01-10T11:45:38.661Z,55.00
2024-01-10T11:48:09.703Z,54.60
2024-01-10T11:50:38.425Z,54.30
2024-01-10T11:53:06.412Z,54.90
2024-01-10T11:55:49.520Z,54.80
2024-01-10T11:58:19.142Z,54.90
2024-01-10T12:00:49.461Z,55.20
2024-01-10T12:03:18.314Z,55.40
2024-01-10T12:05:46.320Z,54.90
2024-01-10T12:08:14.342Z,54.50
2024-01-10T12:10:51.255Z,55.00
2024-01-10T12:13:19.287Z,55.00
2024-01-10T12:15:48.672Z,54.80
2024-01-10T12:18:16.618Z,54.50
2024-01-10T12:20:46.156Z,54.70
2024-01-10T12:23:14.181Z,54.70
2024-01-10T12:25:42.150Z,54.10
2024-01-10T12:28:10.371Z,54.20
2024-01-10T12:30:38.387Z,54.40
2024-01-10T12:33:09.908Z,54.20
2024-01-10T12:35:38.804Z,54.20
2024-01-10T12:38:07.134Z,54.50
2024-01-10T12:40:35.159Z,54.10
2024-01-10T12:43:06.838Z,54.10
2024-01-10T12:45:34.914Z,54.30
2024-01-10T12:48:03.899Z,54.10
2024-01-10T12:50:33.374Z,53.60
2024-01-10T12:53:01.848Z,53.80
2024-01-10T12:55:30.160Z,54.00
2024-01-10T12:58:00.672Z,54.30
2024-01-10T13:00:30.939Z,54.50
2024-01-10T13:02:58.932Z,54.60
2024-01-10T13:05:27.038Z,54.80
2024-01-10T13:07:56.446Z,54.60
2024-01-10T13:10:24.457Z,54.90
2024-01-10T13:12:52.554Z,55.00
2024-01-10T13:15:20.685Z,55.10
2024-01-10T13:17:48.692Z,55.50
2024-01-10T13:20:16.631Z,55.10
2024-01-10T13:22:46.970Z,55.30
2024-01-10T13:25:16.896Z,55.70
2024-01-10T13:27:44.855Z,55.50
2024-01-10T13:30:13.267Z,55.90
2024-01-10T13:32:41.312Z,55.90
2024-01-10T13:35:10.171Z,56.40
2024-01-10T13:37:38.105Z,55.80
2024-01-10T13:40:08.170Z,56.10
2024-01-10T13:42:38.044Z,56.40
2024-01-10T13:45:07.155Z,56.20
2024-01-10T13:47:35.264Z,56.50
2024-01-10T13:50:04.743Z,56.70
2024-01-10T13:52:32.655Z,56.70
2024-01-10T13:55:00.825Z,56.90
2024-01-10T13:57:30.812Z,57.00
2024-01-10T14:00:00.307Z,57.00
2024-01-10T14:02:28.559Z,56.70
2024-01-10T14:04:58.703Z,56.80
2024-01-10T14:07:27.079Z,56.70
2024-01-10T14:09:56.097Z,56.40
2024-01-10T14:12:24.025Z,56.70
2024-01-10T14:14:52.220Z,57.00
2024-01-10T14:17:23.302Z,57.00
2024-01-10T14:19:52.794Z,57.00
2024-01-10T14:22:29.049Z,57.00
2024-01-10T14:25:02.268Z,57.40
2024-01-10T14:27:31.351Z,57.60
2024-01-10T14:29:59.962Z,57.40
2024-01-10T14:32:29.555Z,57.40
2024-01-10T14:34:58.554Z,57.20
2024-01-10T14:37:27.359Z,57.20
2024-01-10T14:39:55.234Z,57.10
2024-01-10T14:42:23.120Z,57.00
2024-01-10T14:44:50.999Z,57.00
2024-01-10T14:47:18.931Z,57.10
2024-01-10T14:49:48.632Z,57.10
2024-01-10T14:52:19.640Z,57.10
2024-01-10T14:54:47.522Z,57.10
2024-01-10T14:57:15.433Z,57.30
2024-01-10T14:59:46.819Z,57.10
2024-01-10T15:02:17.230Z,57.50
2024-01-10T15:04:45.526Z,57.50
2024-01-10T15:07:15.686Z,57.70
2024-01-10T15:09:44.853Z,57.70
2024-01-10T15:12:13.788Z,57.90
2024-01-10T15:14:42.295Z,57.90
2024-01-10T15:17:11.888Z,58.10
2024-01-10T15:19:42.166Z,58.10
2024-01-10T15:22:10.455Z,58.30
2024-01-10T15:24:41.823Z,58.40
2024-01-10T15:27:12.080Z,58.50
2024-01-10T15:29:41.045Z,58.80
2024-01-10T15:32:09.900Z,58.70
2024-01-10T15:34:39.358Z,59.00
2024-01-10T15:37:07.449Z,58.80
2024-01-10T15:39:35.963Z,59.10
2024-01-10T15:42:05.721Z,59.00
2024-01-10T15:44:33.688Z,59.40
2024-01-10T15:47:01.709Z,59.20
2024-01-10T15:49:30.443Z,59.30
2024-01-10T15:51:58.347Z,59.30
2024-01-10T15:54:26.464Z,59.50
2024-01-10T15:56:54.347Z,59.30
2024-01-10T15:59:23.769Z,60.00
2024-01-10T16:01:52.547Z,59.70
2024-01-10T16:04:20.462Z,59.90
2024-01-10T16:06:48.450Z,59.80
2024-01-10T16:09:16.402Z,59.90
2024-01-10T16:11:45.486Z,59.90
2024-01-10T16:14:13.609Z,60.00
2024-01-10T16:16:42.865Z,60.00
2024-01-10T16:19:10.905Z,60.00
2024-01-10T16:21:38.905Z,60.30
2024-01-10T16:24:07.840Z,60.50
2024-01-10T16:26:37.304Z,60.80
2024-01-10T16:29:05.760Z,61.00
2024-01-10T16:31:33.914Z,61.30
2024-01-10T16:34:03.445Z,61.30
2024-01-10T16:36:31.393Z,61.60
2024-01-10T16:38:59.616Z,61.70
2024-01-10T16:41:28.203Z,61.80
2024-01-10T16:43:56.160Z,62.60
2024-01-10T16:46:24.106Z,62.00
2024-01-10T16:48:52.263Z,62.70
2024-01-10T16:51:20.640Z,61.90
2024-01-10T16:53:48.592Z,62.10
2024-01-10T16:56:16.534Z,62.40
2024-01-10T16:58:44.461Z,62.50
2024-01-10T17:01:13.701Z,62.30
2024-01-10T17:03:41.773Z,62.50
2024-01-10T17:06:10.380Z,62.60
2024-01-10T17:08:39.778Z,62.90
2024-01-10T17:11:07.799Z,63.30
2024-01-10T17:13:35.779Z,63.20
2024-01-10T17:16:04.398Z,63.60
2024-01-10T17:18:32.568Z,63.60
2024-01-10T17:21:00.513Z,63.60
2024-01-10T17:23:28.441Z,64.20
2024-01-10T17:25:57.764Z,64.20
2024-01-10T17:28:26.174Z,64.00
2024-01-10T17:30:54.165Z,64.20
2024-01-10T17:33:23.120Z,65.10
2024-01-10T17:35:51.159Z,65.70
2024-01-10T17:38:19.259Z,65.80
2024-01-10T17:40:48.832Z,65.80
2024-01-10T17:43:18.140Z,65.80
2024-01-10T17:45:46.784Z,66.10
2024-01-10T17:48:18.244Z,66.50
2024-01-10T17:50:47.293Z,66.60
2024-01-10T17:53:15.445Z,66.50
2024-01-10T17:55:43.472Z,67.30
2024-01-10T17:58:11.450Z,66.60
2024-01-10T18:00:40.794Z,66.70
2024-01-10T18:03:08.870Z,66.80
2024-01-10T18:05:39.764Z,66.90
2024-01-10T18:08:08.053Z,66.90
2024-01-10T18:10:35.970Z,67.00
2024-01-10T18:13:06.086Z,67.00
2024-01-10T18:15:34.000Z,67.00
2024-01-10T18:18:03.310Z,67.10
2024-01-10T18:20:31.280Z,67.20
2024-01-10T18:22:59.289Z,67.20
2024-01-10T18:25:27.203Z,67.20
2024-01-10T18:27:55.104Z,67.10
2024-01-10T18:30:23.227Z,67.00
2024-01-10T18:32:51.310Z,67.10
2024-01-10T18:35:22.016Z,67.10
2024-01-10T18:37:50.412Z,67.00
2024-01-10T18:40:18.453Z,67.20
2024-01-10T18:42:46.358Z,67.30
2024-01-10T18:45:14.298Z,67.30
2024-01-10T18:47:42.450Z,67.40
2024-01-10T18:50:10.902Z,67.70
2024-01-10T18:52:40.545Z,68.00
2024-01-10T18:55:12.933Z,68.30
2024-01-10T18:57:44.213Z,68.30
2024-01-10T19:00:14.824Z,68.10
2024-01-10T19:02:42.760Z,68.40
2024-01-10T19:05:11.024Z,68.90
2024-01-10T19:07:41.023Z,69.80
2024-01-10T19:10:10.112Z,70.10
2024-01-10T19:12:38.142Z,70.40
2024-01-10T19:15:09.978Z,71.60
2024-01-10T19:17:38.462Z,71.80
2024-01-10T19:20:07.774Z,71.70
2024-01-10T19:22:35.872Z,72.10
2024-01-10T19:25:05.820Z,72.60
2024-01-10T19:27:33.964Z,72.80
2024-01-10T19:30:01.973Z,73.40
2024-01-10T19:32:30.108Z,73.70
2024-01-10T19:34:58.081Z,73.80
2024-01-10T19:37:26.696Z,73.60
2024-01-10T19:39:58.760Z,74.00
2024-01-10T19:42:30.533Z,74.20
2024-01-10T19:44:59.885Z,74.60
2024-01-10T19:47:29.256Z,74.60
2024-01-10T19:49:57.516Z,74.10
2024-01-10T19:52:25.599Z,74.10
2024-01-10T19:54:55.983Z,74.10
2024-01-10T19:57:24.417Z,74.10
2024-01-10T19:59:53.809Z,74.30
2024-01-10T20:02:24.932Z,74.20
2024-01-10T20:04:53.022Z,74.30
2024-01-10T20:07:21.398Z,74.70
2024-01-10T20:09:49.715Z,74.90
2024-01-10T20:12:17.637Z,75.30
2024-01-10T20:14:45.597Z,75.80
2024-01-10T20:17:17.259Z,76.40
2024-01-10T20:19:45.345Z,76.90
2024-01-10T20:22:13.662Z,77.20
2024-01-10T20:24:44.660Z,77.30
2024-01-10T20:27:15.559Z,77.30
2024-01-10T20:29:48.212Z,77.30
2024-01-10T20:32:17.578Z,77.20
2024-01-10T20:34:48.070Z,77.20
2024-01-10T20:37:17.174Z,77.20
2024-01-10T20:39:45.298Z,77.20
2024-01-10T20:42:13.725Z,77.00
2024-01-10T20:44:42.293Z,77.00
2024-01-10T20:47:10.475Z,76.90
2024-01-10T20:49:40.314Z,77.20
2024-01-10T20:52:08.519Z,77.10
2024-01-10T20:54:39.451Z,77.40
2024-01-10T20:57:08.656Z,77.90
2024-01-10T20:59:37.025Z,77.80
2024-01-10T21:02:05.257Z,77.80
2024-01-10T21:04:33.267Z,78.10
2024-01-10T21:07:12.740Z,78.40
2024-01-10T21:09:43.503Z,78.70
2024-01-10T21:12:12.555Z,79.00
2024-01-10T21:14:41.821Z,78.80
2024-01-10T21:17:12.318Z,79.40
2024-01-10T21:19:40.672Z,79.40
2024-01-10T21:22:09.977Z,79.60
2024-01-10T21:24:38.344Z,79.90
2024-01-10T21:27:06.527Z,79.60
2024-01-10T21:29:34.603Z,80.00
2024-01-10T21:32:02.726Z,80.30
2024-01-10T21:34:30.804Z,80.40
2024-01-10T21:36:58.882Z,81.00
2024-01-10T21:39:28.125Z,80.80
2024-01-10T21:41:56.332Z,80.80
2024-01-10T21:44:24.299Z,81.10
2024-01-10T21:46:52.757Z,80.70
2024-01-10T21:49:20.885Z,80.70
2024-01-10T21:51:48.883Z,81.10
2024-01-10T21:54:16.951Z,81.20
2024-01-10T21:56:46.333Z,80.70
2024-01-10T21:59:14.436Z,80.90
2024-01-10T22:01:42.390Z,80.60
2024-01-10T22:04:11.132Z,80.20
2024-01-10T22:06:39.895Z,80.60
2024-01-10T22:09:09.579Z,80.90
2024-01-10T22:11:37.742Z,80.90
2024-01-10T22:14:07.095Z,80.40
2024-01-10T22:16:34.988Z,80.90
2024-01-10T22:19:02.958Z,81.50
2024-01-10T22:21:30.972Z,81.20
2024-01-10T22:23:58.918Z,81.20
2024-01-10T22:26:26.872Z,81.10
2024-01-10T22:28:54.832Z,80.80
2024-01-10T22:31:24.105Z,80.60
2024-01-10T22:33:52.081Z,80.40
2024-01-10T22:36:20.030Z,80.60
2024-01-10T22:38:47.996Z,81.00
2024-01-10T22:41:16.039Z,81.20
2024-01-10T22:43:45.199Z,81.40
2024-01-10T22:46:13.105Z,81.40
2024-01-10T22:48:42.462Z,81.20
2024-01-10T22:51:10.710Z,81.20
2024-01-10T22:53:38.850Z,81.20
2024-01-10T22:56:07.670Z,81.00
2024-01-10T22:58:35.580Z,81.30
